Aviation Digital Data Service (ADDS)

Output produced by METARs form (2022 UTC 31 January 2023)
found at http://www.aviationweather.gov/metar/data/
 
KFIG 311954Z AUTO 35006KT 10SM CLR M01/M11 A3014 RMK AO2 SLP224 T10111111
KFIG 311854Z AUTO 30005KT 10SM CLR M02/M11 A3017 RMK AO2 SLP235 T10221111
KFIG 311754Z AUTO 32008KT 10SM CLR M02/M10 A3020 RMK AO2 SLP246 T10221100 11022 21050 58010
KFIG 311654Z AUTO 31006KT 10SM FEW027 M03/M11 A3023 RMK AO2 SLP258 T10331106
KFIG 311636Z AUTO 31008KT 10SM FEW027 M04/M11 A3024 RMK AO2 T10441111
KFIG 311554Z AUTO 30006KT 10SM BKN022 M04/M09 A3025 RMK AO2 SLP264 T10391089
KFIG 311454Z AUTO 29007KT 10SM OVC022 M05/M10 A3023 RMK AO2 SLP257 T10501100 51006
KFIG 311354Z AUTO 35008KT 10SM OVC019 M05/M09 A3023 RMK AO2 SLP257 T10501089
KFIG 311329Z AUTO 32007KT 10SM BKN020 OVC044 M04/M08 A3023 RMK AO2 T10441083
KFIG 311254Z AUTO 31012KT 10SM SCT020 OVC045 M04/M08 A3021 RMK AO2 SLP250 T10441083
KFIG 311252Z AUTO 31010KT 10SM SCT020 OVC045 M04/M08 A3021 RMK AO2
KFIG 311218Z AUTO 32009KT 10SM BKN016 OVC044 M04/M07 A3021 RMK AO2 T10391072
KFIG 311209Z AUTO 32012G17KT 10SM BKN014 OVC020 M04/M07 A3021 RMK AO2 T10391072
KFIG 311154Z AUTO 32010KT 10SM OVC015 M04/M07 A3021 RMK AO2 SLP247 60000 70003 T10391067 11017 21039 53021
KFIG 311147Z AUTO 32009KT 10SM OVC015 M04/M06 A3020 RMK AO2 T10391061
KFIG 311105Z AUTO 31006KT 10SM OVC014 M03/M06 A3018 RMK AO2 T10331056
KFIG 311054Z AUTO 32008KT 10SM OVC015 M03/M06 A3017 RMK AO2 SLP233 T10331056
KFIG 310954Z AUTO 30010G18KT 10SM BKN019 BKN044 OVC050 M03/M06 A3017 RMK AO2 SLP232 T10281056
KFIG 310930Z AUTO 30008KT 10SM FEW017 BKN050 OVC080 M02/M06 A3015 RMK AO2 T10221056
KFIG 310854Z AUTO 30006KT 10SM BKN018 OVC023 M02/M05 A3014 RMK AO2 UPE05B48E52SNB05E32 SLP221 P0000 60000 T10221050 51007
KFIG 310754Z AUTO 30006KT 10SM UP BKN018 OVC075 M02/M04 A3014 RMK AO2 UPB53 SLP220 P0000 T10171044
KFIG 310747Z AUTO 30005KT 10SM BKN019 OVC075 M02/M05 A3014 RMK AO2 T10171050
KFIG 310654Z AUTO 28005KT 9SM OVC075 M02/M04 A3012 RMK AO2 SNE49 SLP214 P0000 T10171044
KFIG 310554Z AUTO 29005KT 7SM -SN BKN038 OVC046 M02/M04 A3012 RMK AO2 SNE10B26 SLP213 P0000 60002 T10171044 10011 21017 55001
KFIG 310454Z AUTO 32006KT 8SM -SN FEW008 BKN039 OVC060 M01/M03 A3011 RMK AO2 SLP212 P0000 T10111033 400611011
KFIG 310450Z AUTO 34006KT 8SM -SN FEW008 BKN040 OVC049 M01/M03 A3011 RMK AO2 P0000
KFIG 310354Z AUTO 31006KT 4SM -SN BR OVC033 M01/M02 A3012 RMK AO2 SLP214 P0001 T10061022
KFIG 310320Z AUTO 32005KT 5SM -SN BR FEW014 OVC034 M01/M02 A3011 RMK AO2 P0000 T10061017
KFIG 310308Z AUTO 32005KT 4SM -SN BR SCT014 BKN027 OVC039 M01/M02 A3011 RMK AO2 P0000 T10061017
KFIG 310304Z AUTO 31005KT 2 1/2SM -SN BR BKN014 BKN024 OVC043 M01/M02 A3011 RMK AO2 P0000 T10061017
KFIG 310254Z AUTO 31005KT 4SM -SN BR OVC012 M01/M02 A3011 RMK AO2 UPB15E22SNB22 SLP211 P0000 60001 T10061022 55000
KFIG 310223Z AUTO 34005KT 7SM -SN SCT010 BKN014 OVC030 00/M02 A3010 RMK AO2 UPB15E22SNB22 P0000 T00001017
KFIG 310154Z AUTO 27003KT 9SM FEW021 OVC033 01/M01 A3011 RMK AO2 UPB29E32SNE06B32E54 SLP210 P0000 T00061006
KFIG 310104Z AUTO 29005KT 9SM -SN SCT014 BKN020 OVC028 01/M01 A3011 RMK AO2 P0000 T00061011
KFIG 310054Z AUTO 30005KT 6SM -SN BR FEW009 BKN014 OVC030 01/00 A3011 RMK AO2 UPE2358SNB2358 SLP211 P0001 T00060000
KFIG 310040Z AUTO 00000KT 6SM -SN BR BKN012 OVC020 01/00 A3012 RMK AO2 UPE2358SNB2358 P0001 T00060000
KFIG 302354Z AUTO 24004KT 10SM UP OVC019 01/00 A3010 RMK AO2 RAE32UPB30SNB05E13 SLP208 P0000 60001 T00110000 10061 20011 51013
KFIG 302334Z AUTO 21005KT 10SM UP SCT009 SCT015 OVC022 02/00 A3010 RMK AO2 RAE32UPB30SNB05E13 P0000 T00170000
KFIG 302254Z AUTO 27003KT 10SM -RA OVC010 02/01 A3010 RMK AO2 UPB19E24B50E52 SLP205 P0001 T00220006
KFIG 302154Z AUTO VRB03KT 9SM -RA OVC010 04/02 A3007 RMK AO2 RAB03E27B45 CIG 006V013 SLP196 P0000 T00390017
KFIG 302108Z AUTO 27006KT 8SM -RA OVC009 04/03 A3007 RMK AO2 RAB03 CIG 006V011 P0000 T00440028
KFIG 302054Z AUTO 25007KT 10SM OVC010 05/03 A3006 RMK AO2 SLP191 T00500028 55000
KFIG 301954Z AUTO 28006KT 10SM OVC012 06/03 A3004 RMK AO2 SLP184 T00560033
KFIG 301946Z AUTO VRB04KT 10SM OVC013 06/03 A3004 RMK AO2 T00560033
KFIG 301854Z AUTO 20006KT 10SM OVC015 06/03 A3005 RMK AO2 SLP187 T00560033
KFIG 301754Z AUTO 19003KT 6SM BR OVC015 04/04 A3006 RMK AO2 SLP191 T00440039 10044 20011 58022
KFIG 301735Z AUTO 00000KT 3SM BR BKN011 OVC014 04/03 A3008 RMK AO2 CIG 006V012 T00390033
KFIG 301727Z AUTO 00000KT 2SM BR BKN006 OVC009 03/03 A3008 RMK AO2 T00330033
KFIG 301710Z AUTO 35003KT 1 1/2SM BR OVC005 03/03 A3010 RMK AO2 T00330028
KFIG 301659Z AUTO 32003KT 1 3/4SM BR OVC003 03/03 A3010 RMK AO2 VIS 3/4V4 T00330028
KFIG 301654Z AUTO 31003KT 4SM BR OVC003 03/03 A3011 RMK AO2 SLP206 T00330028
KFIG 301640Z AUTO 00000KT 4SM BR OVC002 03/03 A3011 RMK AO2 CIG 002V006 T00330028
KFIG 301606Z AUTO 00000KT 2SM BR OVC002 03/02 A3013 RMK AO2 T00280022
KFIG 301554Z AUTO 00000KT 1 1/2SM BR OVC002 03/02 A3013 RMK AO2 SLP215 T00280022
KFIG 301530Z AUTO 21004KT 1SM BR VV002 02/02 A3014 RMK AO2 T00220017
KFIG 301522Z AUTO 20004KT 3/4SM BR VV002 02/02 A3014 RMK AO2 T00220017
KFIG 301454Z AUTO 00000KT 1/4SM FG VV002 02/02 A3013 RMK AO2 SLP215 T00220017 50008
KFIG 301434Z AUTO 00000KT 1/4SM FG VV002 02/02 A3014 RMK AO2 T00170017
KFIG 301409Z AUTO 21003KT 1/4SM FG VV003 02/02 A3014 RMK AO2 T00170017
KFIG 301354Z AUTO 00000KT 1/4SM FG VV002 02/01 A3014 RMK AO2 SLP218 T00170011
KFIG 301334Z AUTO 24003KT 1/4SM FG VV002 02/01 A3014 RMK AO2 T00170011
KFIG 301303Z AUTO 18003KT M1/4SM FG VV002 02/01 A3013 RMK AO2 T00170011
KFIG 301254Z AUTO 00000KT 1/4SM FG VV002 02/01 A3013 RMK AO2 SLP213 T00170011
KFIG 301238Z AUTO 00000KT 1/4SM FG VV002 02/01 A3012 RMK AO2 T00170011
KFIG 301212Z AUTO 00000KT 1/2SM FG VV002 02/01 A3011 RMK AO2 T00170011
KFIG 301154Z AUTO 00000KT 1/2SM FG VV003 01/01 A3011 RMK AO2 SLP207 70004 T00110011 10028 20011 56014
KFIG 301152Z AUTO 00000KT 1/4SM FG VV003 01/01 A3011 RMK AO2
KFIG 301128Z AUTO 00000KT 1/2SM FG VV003 02/01 A3011 RMK AO2 T00170006
KFIG 301113Z AUTO 00000KT 1 1/4SM BR OVC003 02/01 A3011 RMK AO2 T00170011
KFIG 301054Z AUTO 00000KT 2 1/2SM BR OVC003 02/01 A3012 RMK AO2 SLP212 T00170011
KFIG 301014Z AUTO 00000KT 8SM OVC004 02/01 A3014 RMK AO2 T00170006
KFIG 300954Z AUTO 26003KT 10SM OVC008 02/01 A3015 RMK AO2 CIG 005V009 SLP221 T00170006
KFIG 300927Z AUTO 00000KT 10SM OVC009 02/01 A3015 RMK AO2 T00170006
KFIG 300854Z AUTO 22003KT 10SM OVC012 02/01 A3013 RMK AO2 SLP216 T00170006 53001